Time;durP1;ratioP1;P1;durP2;ratioP2;P2;SDS_P1;SDS_P2;PMS_P1;PMS_P2;Temp;Humidity;BMP_temperature;BMP_pressure;BME280_temperature;BME280_humidity;BME280_pressure;Samples;Min_cycle;Max_cycle;Signal;HPM_P1;HPM_P2
2023/10/26 00:01:14;;;;;;;65.40;34.13;;;8.90;88.70;;;;;;5027447;28;20052;-64
2023/10/26 00:03:40;;;;;;;63.00;34.60;;;8.90;88.70;;;;;;5032857;28;20049;-64
2023/10/26 00:06:05;;;;;;;73.83;35.73;;;8.90;88.60;;;;;;5031839;28;20408;-64
2023/10/26 00:08:31;;;;;;;72.43;36.23;;;8.90;88.70;;;;;;5006079;28;20053;-64
2023/10/26 00:11:01;;;;;;;70.47;36.50;;;8.90;88.70;;;;;;5024658;28;20059;-64
2023/10/26 00:13:27;;;;;;;65.67;37.53;;;8.90;88.70;;;;;;5029217;28;20132;-64
2023/10/26 00:15:53;;;;;;;65.20;35.97;;;8.90;88.70;;;;;;5027097;28;20509;-64
2023/10/26 00:18:18;;;;;;;63.97;37.17;;;8.90;88.70;;;;;;5028633;28;20053;-64
2023/10/26 00:20:45;;;;;;;71.47;38.83;;;9.00;88.80;;;;;;5029192;28;20038;-64
2023/10/26 00:23:11;;;;;;;68.97;38.47;;;9.00;88.90;;;;;;5027921;28;20393;-64
2023/10/26 00:25:37;;;;;;;73.33;39.40;;;9.00;88.90;;;;;;5028628;28;20056;-64
2023/10/26 00:28:02;;;;;;;73.17;39.83;;;9.00;88.90;;;;;;5014643;28;20042;-63
2023/10/26 00:30:28;;;;;;;73.13;41.30;;;9.00;89.00;;;;;;5023527;28;20052;-64
2023/10/26 00:32:54;;;;;;;76.87;40.93;;;9.00;88.90;;;;;;5030684;28;20044;-64
2023/10/26 00:35:19;;;;;;;74.77;40.93;;;9.00;89.00;;;;;;5038193;28;20053;-64
2023/10/26 00:37:45;;;;;;;73.67;41.23;;;9.00;88.90;;;;;;5028042;28;20065;-64
2023/10/26 00:40:12;;;;;;;68.00;40.07;;;9.00;88.80;;;;;;5031077;28;20045;-64
2023/10/26 00:42:38;;;;;;;67.63;40.07;;;9.00;88.90;;;;;;5015700;28;20050;-64
2023/10/26 00:45:04;;;;;;;69.23;40.50;;;9.00;88.80;;;;;;5012698;28;20507;-64
2023/10/26 00:47:31;;;;;;;77.70;42.00;;;9.00;88.80;;;;;;5028266;28;20084;-64
2023/10/26 00:49:58;;;;;;;73.40;42.13;;;9.00;88.80;;;;;;5031663;28;20611;-64
2023/10/26 00:52:25;;;;;;;78.93;43.23;;;8.90;88.80;;;;;;5014722;28;20046;-64
2023/10/26 00:54:52;;;;;;;72.50;43.00;;;8.90;88.70;;;;;;5032320;28;20061;-64
2023/10/26 00:57:22;;;;;;;79.30;44.40;;;8.90;88.70;;;;;;5031665;28;20088;-63
2023/10/26 00:59:49;;;;;;;93.60;46.10;;;8.90;88.70;;;;;;5030293;28;20385;-64
2023/10/26 01:02:16;;;;;;;85.77;45.87;;;8.80;88.70;;;;;;5031761;28;20057;-64
2023/10/26 01:04:42;;;;;;;89.93;46.43;;;8.80;88.70;;;;;;5031691;28;20500;-64
2023/10/26 01:07:08;;;;;;;87.63;46.47;;;8.80;88.70;;;;;;5031905;28;20049;-64
2023/10/26 01:09:34;;;;;;;99.47;48.70;;;8.80;88.60;;;;;;5031364;28;20045;-64
2023/10/26 01:12:01;;;;;;;94.00;46.17;;;8.70;88.70;;;;;;5031414;28;20064;-64
2023/10/26 01:14:27;;;;;;;99.07;48.17;;;8.60;88.60;;;;;;5031568;28;20049;-64
2023/10/26 01:16:55;;;;;;;100.63;48.37;;;8.60;88.60;;;;;;5031485;28;20053;-64
2023/10/26 01:19:21;;;;;;;92.70;45.47;;;8.60;88.60;;;;;;5031298;28;20060;-65
2023/10/26 01:21:53;;;;;;;98.10;47.20;;;8.60;88.60;;;;;;5031465;28;20049;-64
2023/10/26 01:24:19;;;;;;;91.57;46.33;;;8.50;88.50;;;;;;5029555;28;20049;-64
2023/10/26 01:26:46;;;;;;;97.63;49.23;;;8.50;88.60;;;;;;5028581;28;20872;-64
2023/10/26 01:29:12;;;;;;;107.63;51.57;;;8.50;88.60;;;;;;5026864;28;20048;-64
2023/10/26 01:31:37;;;;;;;117.07;54.20;;;8.50;88.60;;;;;;5031209;28;20200;-64
2023/10/26 01:34:04;;;;;;;104.43;50.20;;;8.50;88.60;;;;;;5028245;28;20503;-64
2023/10/26 01:36:29;;;;;;;102.20;52.57;;;8.50;88.70;;;;;;5025543;28;20053;-64
2023/10/26 01:38:55;;;;;;;109.67;52.33;;;8.50;88.70;;;;;;5012406;28;20370;-64
2023/10/26 01:41:21;;;;;;;122.80;53.10;;;8.50;88.70;;;;;;5020122;28;20114;-64
2023/10/26 01:43:47;;;;;;;101.97;52.00;;;8.40;88.70;;;;;;5031253;28;20567;-64
2023/10/26 01:46:13;;;;;;;108.53;51.50;;;8.40;88.60;;;;;;5025296;28;20045;-64
2023/10/26 01:48:39;;;;;;;101.73;50.10;;;8.40;88.60;;;;;;5011291;28;20081;-64
2023/10/26 01:51:05;;;;;;;118.63;52.77;;;8.30;88.60;;;;;;5030510;28;20641;-64
2023/10/26 01:53:31;;;;;;;110.37;52.23;;;8.30;88.60;;;;;;5029848;28;20049;-64
2023/10/26 01:55:56;;;;;;;114.63;51.83;;;8.30;88.60;;;;;;5015741;28;20144;-64
2023/10/26 01:58:22;;;;;;;118.83;53.23;;;8.30;88.60;;;;;;5031136;28;20096;-65
2023/10/26 02:00:48;;;;;;;118.03;54.37;;;8.30;88.70;;;;;;5031130;28;20618;-64
2023/10/26 02:03:15;;;;;;;126.63;54.03;;;8.30;88.70;;;;;;5018281;28;20049;-64
2023/10/26 02:05:41;;;;;;;124.00;52.50;;;8.30;88.60;;;;;;5030838;28;20064;-63
2023/10/26 02:08:07;;;;;;;146.90;54.70;;;8.30;88.60;;;;;;5030271;28;20053;-63
2023/10/26 02:10:33;;;;;;;94.53;49.20;;;8.30;88.70;;;;;;5024522;28;20128;-64
2023/10/26 02:12:59;;;;;;;123.90;51.87;;;8.20;88.70;;;;;;5036496;28;20638;-64
2023/10/26 02:15:25;;;;;;;162.27;57.87;;;8.20;88.70;;;;;;5030498;28;20133;-64
2023/10/26 02:17:51;;;;;;;155.97;60.90;;;8.20;88.70;;;;;;5030175;28;20564;-63
2023/10/26 02:20:17;;;;;;;158.23;62.60;;;8.20;88.70;;;;;;5024545;28;20132;-64
2023/10/26 02:22:43;;;;;;;152.70;62.10;;;8.20;88.90;;;;;;5030621;28;20034;-64
2023/10/26 02:25:08;;;;;;;143.27;60.13;;;8.30;88.90;;;;;;5021000;28;20064;-64
2023/10/26 02:27:34;;;;;;;127.00;59.77;;;8.30;88.90;;;;;;5024255;28;20099;-64
2023/10/26 02:30:01;;;;;;;140.83;58.30;;;8.30;89.00;;;;;;5021203;28;20412;-65
2023/10/26 02:32:26;;;;;;;159.17;61.23;;;8.30;88.90;;;;;;5016694;28;20486;-64
2023/10/26 02:34:52;;;;;;;136.93;58.63;;;8.30;88.90;;;;;;5043691;28;20597;-63
2023/10/26 02:37:19;;;;;;;140.97;61.70;;;8.20;88.90;;;;;;5017798;28;20050;-64
2023/10/26 02:39:45;;;;;;;133.70;57.97;;;8.20;88.80;;;;;;5029921;28;20411;-64
2023/10/26 02:42:11;;;;;;;130.60;59.83;;;8.20;88.80;;;;;;5026003;28;20370;-64
2023/10/26 02:44:36;;;;;;;152.40;60.57;;;8.20;88.90;;;;;;5029756;28;20081;-64
2023/10/26 02:47:02;;;;;;;143.80;62.03;;;8.20;88.90;;;;;;5015287;28;20129;-64
2023/10/26 02:49:30;;;;;;;153.90;65.43;;;8.20;88.90;;;;;;5030068;28;20480;-63
2023/10/26 02:51:56;;;;;;;151.47;63.60;;;8.20;88.90;;;;;;5029978;28;20454;-63
2023/10/26 02:54:23;;;;;;;143.67;62.20;;;8.20;88.90;;;;;;5029994;28;20037;-64
2023/10/26 02:56:48;;;;;;;140.33;62.43;;;8.20;88.90;;;;;;5028841;28;20404;-64
2023/10/26 02:59:14;;;;;;;135.07;62.07;;;8.20;89.00;;;;;;5029925;28;20067;-63
2023/10/26 03:01:39;;;;;;;151.70;65.57;;;8.20;88.90;;;;;;5029643;28;20634;-64
2023/10/26 03:04:05;;;;;;;141.03;64.50;;;8.20;89.00;;;;;;5028714;28;20504;-64
2023/10/26 03:06:38;;;;;;;153.23;65.60;;;8.20;88.90;;;;;;5028249;28;20045;-64
2023/10/26 03:09:05;;;;;;;149.97;63.03;;;8.20;89.00;;;;;;5027077;28;20385;-63
2023/10/26 03:11:31;;;;;;;149.93;63.00;;;8.20;89.00;;;;;;5040930;28;20095;-64
2023/10/26 03:13:57;;;;;;;160.83;66.57;;;8.20;89.00;;;;;;5029300;28;20412;-64
2023/10/26 03:16:23;;;;;;;148.57;65.00;;;8.30;89.00;;;;;;5018898;28;20076;-64
2023/10/26 03:18:48;;;;;;;152.30;63.07;;;8.30;89.00;;;;;;5029005;28;20045;-64
2023/10/26 03:21:16;;;;;;;152.57;67.47;;;8.30;89.00;;;;;;5029139;28;20041;-64
2023/10/26 03:23:41;;;;;;;146.17;65.93;;;8.30;89.00;;;;;;5029628;28;20429;-64
2023/10/26 03:26:12;;;;;;;142.27;64.30;;;8.30;89.00;;;;;;5026026;28;20037;-64
2023/10/26 03:28:37;;;;;;;145.73;68.27;;;8.30;89.00;;;;;;5040396;28;20517;-64
2023/10/26 03:31:10;;;;;;;149.53;65.97;;;8.30;89.00;;;;;;5026848;28;20083;-64
2023/10/26 03:33:36;;;;;;;152.57;66.23;;;8.30;89.00;;;;;;5025641;28;20099;-64
2023/10/26 03:36:02;;;;;;;154.00;64.77;;;8.30;89.10;;;;;;5027016;28;20479;-63
2023/10/26 03:38:28;;;;;;;175.60;69.70;;;8.30;89.00;;;;;;5025629;28;20152;-63
2023/10/26 03:40:54;;;;;;;145.67;66.90;;;8.30;89.00;;;;;;5025896;28;20517;-64
2023/10/26 03:43:19;;;;;;;149.47;66.37;;;8.30;89.00;;;;;;5027216;28;20046;-64
2023/10/26 03:45:45;;;;;;;166.53;69.47;;;8.30;89.00;;;;;;5026096;28;20432;-64
2023/10/26 03:48:11;;;;;;;153.53;65.30;;;8.30;88.90;;;;;;5018582;28;20041;-64
2023/10/26 03:50:37;;;;;;;151.13;63.93;;;8.30;89.00;;;;;;5029034;28;20041;-64
2023/10/26 03:53:03;;;;;;;152.30;64.87;;;8.20;89.00;;;;;;5029151;28;20046;-64
2023/10/26 03:55:29;;;;;;;149.33;62.03;;;8.20;88.90;;;;;;5028676;28;20045;-64
2023/10/26 03:57:54;;;;;;;126.90;59.67;;;8.20;88.90;;;;;;5028076;28;20060;-64
2023/10/26 04:00:20;;;;;;;150.27;62.27;;;8.20;88.90;;;;;;5028403;28;20033;-63
2023/10/26 04:02:46;;;;;;;129.80;58.67;;;8.20;88.90;;;;;;5029292;28;20049;-64
2023/10/26 04:05:12;;;;;;;132.53;59.30;;;8.10;88.80;;;;;;5028850;28;20049;-64
2023/10/26 04:07:38;;;;;;;146.40;61.30;;;8.10;88.90;;;;;;5020746;28;20060;-64
2023/10/26 04:10:07;;;;;;;131.43;59.10;;;8.10;88.90;;;;;;5025297;28;20045;-64
2023/10/26 04:12:33;;;;;;;143.17;58.90;;;8.10;88.90;;;;;;5027873;28;20045;-64
2023/10/26 04:14:58;;;;;;;142.73;58.57;;;8.00;88.90;;;;;;5030428;28;20049;-63
2023/10/26 04:17:24;;;;;;;125.07;56.20;;;8.00;88.70;;;;;;5030547;28;20543;-64
2023/10/26 04:19:50;;;;;;;124.00;57.13;;;8.00;88.80;;;;;;5032573;28;20396;-64
2023/10/26 04:22:15;;;;;;;129.23;56.03;;;8.00;88.70;;;;;;5032871;28;20124;-64
2023/10/26 04:24:41;;;;;;;153.37;57.57;;;8.00;88.90;;;;;;5030759;28;20069;-64
2023/10/26 04:27:07;;;;;;;135.77;57.87;;;8.00;88.80;;;;;;5031921;28;20045;-64
2023/10/26 04:29:33;;;;;;;150.03;62.67;;;8.00;88.90;;;;;;5017692;28;20042;-63
2023/10/26 04:31:59;;;;;;;146.80;62.27;;;8.00;88.80;;;;;;5024261;28;20108;-64
2023/10/26 04:34:25;;;;;;;158.50;62.27;;;8.00;88.80;;;;;;5033482;28;20120;-64
2023/10/26 04:36:51;;;;;;;146.90;60.57;;;8.00;88.90;;;;;;5032179;28;20544;-64
2023/10/26 04:39:17;;;;;;;155.87;60.57;;;7.90;88.70;;;;;;5031280;28;20136;-64
2023/10/26 04:41:43;;;;;;;164.90;61.90;;;7.90;88.90;;;;;;5028630;28;20441;-64
2023/10/26 04:44:09;;;;;;;167.00;64.27;;;7.90;88.90;;;;;;5025682;28;20080;-64
2023/10/26 04:46:34;;;;;;;173.20;64.63;;;7.90;88.90;;;;;;5031516;28;20373;-63
2023/10/26 04:49:00;;;;;;;161.17;62.13;;;7.90;88.80;;;;;;5026681;28;20050;-64
2023/10/26 04:51:26;;;;;;;166.37;65.63;;;7.90;89.00;;;;;;5028122;28;20053;-64
2023/10/26 04:53:53;;;;;;;168.57;65.10;;;7.90;88.90;;;;;;5024594;28;20061;-63
2023/10/26 04:56:18;;;;;;;201.13;67.73;;;7.90;89.00;;;;;;5026933;28;20057;-64
2023/10/26 04:58:44;;;;;;;194.20;68.30;;;7.90;89.00;;;;;;5028995;28;20049;-63
2023/10/26 05:01:10;;;;;;;173.37;62.33;;;7.90;89.00;;;;;;5024522;28;20099;-64
2023/10/26 05:03:37;;;;;;;136.43;58.67;;;7.90;89.00;;;;;;5023247;28;20046;-64
2023/10/26 05:06:03;;;;;;;227.37;66.30;;;7.90;88.90;;;;;;5020868;28;20118;-64
2023/10/26 05:08:29;;;;;;;216.17;64.40;;;7.90;89.00;;;;;;5016666;28;20054;-64
2023/10/26 05:10:55;;;;;;;174.37;64.33;;;7.90;89.00;;;;;;5018367;28;20048;-63
2023/10/26 05:13:21;;;;;;;171.10;61.10;;;7.80;88.90;;;;;;5039686;28;20463;-63
2023/10/26 05:15:47;;;;;;;447.30;81.07;;;7.80;88.90;;;;;;5016696;28;20409;-64
2023/10/26 05:18:13;;;;;;;159.23;60.83;;;7.80;88.90;;;;;;5026248;28;20044;-63
2023/10/26 05:20:38;;;;;;;163.20;58.70;;;7.80;88.90;;;;;;5028641;28;20052;-64
2023/10/26 05:23:05;;;;;;;157.63;58.37;;;7.80;88.80;;;;;;5015499;28;20536;-64
2023/10/26 05:25:31;;;;;;;129.83;55.57;;;7.80;88.90;;;;;;5028409;28;20237;-64
2023/10/26 05:27:57;;;;;;;132.67;54.10;;;7.80;88.90;;;;;;5026592;28;20597;-64
2023/10/26 05:30:23;;;;;;;178.70;60.40;;;7.80;88.80;;;;;;5027567;28;20053;-64
2023/10/26 05:32:48;;;;;;;182.00;60.17;;;7.80;88.90;;;;;;5020476;28;20045;-63
2023/10/26 05:35:14;;;;;;;184.27;60.67;;;7.70;88.80;;;;;;5029870;28;20366;-63
2023/10/26 05:37:40;;;;;;;208.63;59.47;;;7.70;88.90;;;;;;5026864;28;20077;-64
2023/10/26 05:40:06;;;;;;;157.13;55.07;;;7.60;88.90;;;;;;5030448;28;20079;-63
2023/10/26 05:42:32;;;;;;;122.67;53.10;;;7.60;88.70;;;;;;5030065;28;20087;-63
2023/10/26 05:44:58;;;;;;;296.10;73.57;;;7.60;88.70;;;;;;5026783;28;20087;-63
2023/10/26 05:47:23;;;;;;;130.27;52.83;;;7.50;88.70;;;;;;5022255;28;20049;-64
2023/10/26 05:49:49;;;;;;;132.27;53.90;;;7.50;88.70;;;;;;5025079;28;20042;-63
2023/10/26 05:52:15;;;;;;;158.07;58.67;;;7.50;88.70;;;;;;5022192;28;20416;-64
2023/10/26 05:54:41;;;;;;;209.93;60.10;;;7.50;88.90;;;;;;5020672;28;20049;-63
2023/10/26 05:57:06;;;;;;;130.23;53.93;;;7.50;88.90;;;;;;5028534;28;20069;-64
2023/10/26 05:59:32;;;;;;;374.37;67.20;;;7.50;88.80;;;;;;5025817;28;20049;-64
2023/10/26 06:01:58;;;;;;;360.80;60.50;;;7.50;88.80;;;;;;5027259;28;20038;-63
2023/10/26 06:04:24;;;;;;;144.43;51.60;;;7.50;88.70;;;;;;5019953;28;20046;-64
2023/10/26 06:06:50;;;;;;;512.47;65.83;;;7.40;88.70;;;;;;5027345;28;20136;-64
2023/10/26 06:09:16;;;;;;;553.53;66.57;;;7.40;88.70;;;;;;5028370;28;20132;-64
2023/10/26 06:11:41;;;;;;;335.63;56.47;;;7.40;88.70;;;;;;5031420;28;20052;-64
2023/10/26 06:14:08;;;;;;;626.13;75.07;;;7.30;88.70;;;;;;5030142;28;20049;-64
2023/10/26 06:16:34;;;;;;;550.13;66.90;;;7.20;88.70;;;;;;5030099;28;20061;-64
2023/10/26 06:19:00;;;;;;;489.27;68.23;;;7.20;88.60;;;;;;5029899;28;20085;-63
2023/10/26 06:21:27;;;;;;;531.77;63.00;;;7.20;88.70;;;;;;5029445;28;20942;-64
2023/10/26 06:23:53;;;;;;;486.10;58.63;;;7.20;88.60;;;;;;5030083;28;20156;-64
2023/10/26 06:26:19;;;;;;;663.27;70.57;;;7.20;88.60;;;;;;5030831;28;20428;-64
2023/10/26 06:28:46;;;;;;;455.97;56.33;;;7.10;88.50;;;;;;5028759;28;20045;-64
2023/10/26 06:31:16;;;;;;;647.30;74.03;;;7.00;88.50;;;;;;4995423;28;20099;-64
2023/10/26 06:33:42;;;;;;;565.53;69.53;;;7.00;88.50;;;;;;5019979;28;20045;-64
2023/10/26 06:36:09;;;;;;;556.20;72.63;;;7.00;88.50;;;;;;5016014;28;20049;-64
2023/10/26 06:38:37;;;;;;;692.67;86.77;;;7.00;88.50;;;;;;5017121;28;20057;-63
2023/10/26 06:41:03;;;;;;;501.03;75.77;;;7.00;88.60;;;;;;5017543;28;20136;-64
2023/10/26 06:43:29;;;;;;;697.30;98.83;;;7.00;88.70;;;;;;5017250;28;20057;-63
2023/10/26 06:45:56;;;;;;;568.77;88.10;;;7.10;88.80;;;;;;5018185;28;20124;-64
2023/10/26 06:48:22;;;;;;;643.67;102.30;;;7.20;88.90;;;;;;5016588;28;20128;-64
2023/10/26 06:50:48;;;;;;;746.87;107.80;;;7.20;89.00;;;;;;5017776;28;20492;-63
2023/10/26 06:53:14;;;;;;;566.00;90.60;;;7.30;89.00;;;;;;5017495;28;20567;-64
2023/10/26 06:55:41;;;;;;;398.97;71.43;;;7.30;89.00;;;;;;5017137;28;20053;-64
2023/10/26 06:58:06;;;;;;;238.43;66.97;;;7.20;88.90;;;;;;5016989;28;20049;-64
2023/10/26 07:00:34;;;;;;;357.70;71.73;;;7.20;88.90;;;;;;5015906;28;20060;-64
2023/10/26 07:03:00;;;;;;;926.67;123.77;;;7.20;89.00;;;;;;5017340;28;20049;-64
2023/10/26 07:05:26;;;;;;;200.87;65.80;;;7.30;88.90;;;;;;5014765;28;20408;-64
2023/10/26 07:07:52;;;;;;;197.47;64.93;;;7.40;89.00;;;;;;5017109;28;20483;-64
2023/10/26 07:10:19;;;;;;;201.43;68.03;;;7.40;89.00;;;;;;5017133;28;20057;-64
2023/10/26 07:12:46;;;;;;;194.73;68.27;;;7.50;89.20;;;;;;5017168;28;20115;-65
2023/10/26 07:15:12;;;;;;;219.50;69.63;;;7.50;89.20;;;;;;5015859;28;20050;-64
2023/10/26 07:17:38;;;;;;;211.27;71.10;;;7.50;89.30;;;;;;5017355;28;20403;-64
2023/10/26 07:20:07;;;;;;;194.17;68.37;;;7.60;89.20;;;;;;5015431;28;20566;-64
2023/10/26 07:22:34;;;;;;;216.83;71.37;;;7.70;89.30;;;;;;5014937;28;20148;-64
2023/10/26 07:25:01;;;;;;;210.43;71.50;;;7.70;89.30;;;;;;5016614;28;20136;-64
2023/10/26 07:27:26;;;;;;;217.37;72.97;;;7.80;89.30;;;;;;5016069;28;20060;-64
2023/10/26 07:29:52;;;;;;;203.07;70.97;;;7.80;89.30;;;;;;5018091;28;20057;-64
2023/10/26 07:32:18;;;;;;;230.43;73.80;;;7.80;89.40;;;;;;5016866;28;20495;-63
2023/10/26 07:34:43;;;;;;;213.33;71.53;;;7.80;89.20;;;;;;5016389;28;20068;-64
2023/10/26 07:37:09;;;;;;;238.83;74.83;;;7.80;89.30;;;;;;5015685;28;20045;-65
2023/10/26 07:39:36;;;;;;;225.03;69.40;;;7.80;89.20;;;;;;5014853;28;21560;-64
2023/10/26 07:42:02;;;;;;;243.00;74.23;;;7.80;89.30;;;;;;5017821;28;20151;-64
2023/10/26 07:44:30;;;;;;;265.20;74.57;;;7.80;89.30;;;;;;5015809;28;20135;-65
2023/10/26 07:46:57;;;;;;;250.37;72.57;;;7.80;89.20;;;;;;5016860;28;20092;-63
2023/10/26 07:49:22;;;;;;;184.87;65.83;;;7.80;89.30;;;;;;5016133;28;20451;-64
2023/10/26 07:51:49;;;;;;;183.53;63.37;;;8.00;89.30;;;;;;5016103;28;20057;-64
2023/10/26 07:54:15;;;;;;;198.73;68.17;;;8.00;89.30;;;;;;5015484;28;20056;-63
2023/10/26 07:56:41;;;;;;;165.20;64.90;;;8.00;89.50;;;;;;5016985;28;20046;-64
2023/10/26 07:59:07;;;;;;;182.93;67.87;;;8.10;89.40;;;;;;5016711;28;20114;-64
2023/10/26 08:01:32;;;;;;;193.90;70.93;;;8.20;89.50;;;;;;5014820;28;20203;-64
2023/10/26 08:03:58;;;;;;;197.87;72.70;;;8.20;89.60;;;;;;5015249;28;20077;-64
2023/10/26 08:06:24;;;;;;;197.50;72.90;;;8.30;89.60;;;;;;5015789;28;20328;-63
2023/10/26 08:08:53;;;;;;;178.33;68.87;;;8.40;89.70;;;;;;5017951;28;20110;-63
2023/10/26 08:11:19;;;;;;;193.57;72.87;;;8.50;89.70;;;;;;5016650;28;20192;-64
2023/10/26 08:13:45;;;;;;;185.63;70.33;;;8.50;89.60;;;;;;5016193;28;20042;-64
2023/10/26 08:16:11;;;;;;;157.67;67.47;;;8.50;89.70;;;;;;5015930;28;20062;-64
2023/10/26 08:18:37;;;;;;;177.57;70.40;;;8.50;89.60;;;;;;5015983;28;20060;-64
2023/10/26 08:21:05;;;;;;;178.63;70.17;;;8.50;89.60;;;;;;5015126;28;20548;-64
2023/10/26 08:23:32;;;;;;;157.13;64.10;;;8.50;89.60;;;;;;5015507;28;20388;-64
2023/10/26 08:26:08;;;;;;;132.17;58.13;;;8.50;89.50;;;;;;5016692;28;20131;-64
2023/10/26 08:28:35;;;;;;;130.37;58.97;;;8.50;89.40;;;;;;5014546;28;20055;-64
2023/10/26 08:31:01;;;;;;;134.97;58.37;;;8.50;89.40;;;;;;5007234;28;20049;-64
2023/10/26 08:33:29;;;;;;;143.20;60.43;;;8.50;89.30;;;;;;5008921;28;20064;-64
2023/10/26 08:35:55;;;;;;;148.70;62.50;;;8.50;89.30;;;;;;5007516;28;20041;-63
2023/10/26 08:38:22;;;;;;;157.87;64.23;;;8.50;89.40;;;;;;5012499;28;20084;-65
2023/10/26 08:40:55;;;;;;;142.17;62.13;;;8.50;89.40;;;;;;5013298;28;20045;-64
2023/10/26 08:43:22;;;;;;;148.80;62.17;;;8.60;89.50;;;;;;5014032;28;20136;-64
2023/10/26 08:45:48;;;;;;;140.93;62.17;;;8.60;89.50;;;;;;5012258;28;20048;-64
2023/10/26 08:48:18;;;;;;;149.30;61.03;;;8.60;89.50;;;;;;5015848;28;20065;-64
2023/10/26 08:50:45;;;;;;;136.53;58.97;;;8.60;89.50;;;;;;5013794;28;21052;-64
2023/10/26 08:53:12;;;;;;;152.10;60.63;;;8.80;89.50;;;;;;5014687;28;20041;-64
2023/10/26 08:55:40;;;;;;;145.93;61.37;;;8.80;89.60;;;;;;5012659;28;20297;-64
2023/10/26 08:58:06;;;;;;;132.73;59.27;;;8.80;89.50;;;;;;5015277;28;20053;-64
2023/10/26 09:00:32;;;;;;;144.03;59.80;;;8.80;89.50;;;;;;5014828;28;20061;-64
2023/10/26 09:02:58;;;;;;;147.80;61.87;;;8.80;89.40;;;;;;5018954;28;20050;-64
2023/10/26 09:05:24;;;;;;;140.00;60.83;;;8.70;89.40;;;;;;5016784;28;20060;-64
2023/10/26 09:07:53;;;;;;;154.40;61.47;;;8.70;89.20;;;;;;5018512;28;20416;-64
2023/10/26 09:10:32;;;;;;;152.87;63.13;;;8.70;89.30;;;;;;5016788;28;20053;-64
2023/10/26 09:13:03;;;;;;;153.43;62.67;;;8.70;89.30;;;;;;5018819;28;20050;-63
2023/10/26 09:15:29;;;;;;;150.35;61.10;;;8.70;89.30;;;;;;5017686;28;20444;-64
2023/10/26 09:18:00;;;;;;;155.93;64.53;;;8.70;89.30;;;;;;5017039;28;20412;-64
2023/10/26 09:20:26;;;;;;;124.32;51.78;;;8.70;89.20;;;;;;5016425;28;20128;-64
2023/10/26 09:22:52;;;;;;;154.17;67.37;;;8.70;89.30;;;;;;5018119;28;20057;-64
2023/10/26 09:25:18;;;;;;;178.63;73.60;;;8.80;89.30;;;;;;5018282;28;20084;-64
2023/10/26 09:27:48;;;;;;;169.07;71.67;;;8.80;89.30;;;;;;5018844;28;20131;-64
2023/10/26 09:30:28;;;;;;;172.00;73.13;;;8.80;89.20;;;;;;5018513;28;20168;-64
2023/10/26 09:32:55;;;;;;;170.03;66.93;;;8.80;89.30;;;;;;5019388;28;20045;-64
2023/10/26 09:35:29;;;;;;;137.47;59.67;;;8.80;89.40;;;;;;5017049;28;20127;-63
2023/10/26 09:37:54;;;;;;;136.57;59.13;;;8.70;89.20;;;;;;5017395;28;20060;-64
2023/10/26 09:40:22;;;;;;;131.77;57.73;;;8.60;89.00;;;;;;5017161;28;20413;-63
2023/10/26 09:42:48;;;;;;;155.90;59.77;;;8.60;88.90;;;;;;5017586;28;20057;-64
2023/10/26 09:45:16;;;;;;;131.87;56.17;;;8.50;89.00;;;;;;5017668;28;20045;-64
2023/10/26 09:47:42;;;;;;;135.43;57.37;;;8.60;89.00;;;;;;5018034;28;20184;-65
2023/10/26 09:50:09;;;;;;;117.10;53.87;;;8.60;89.10;;;;;;5016411;28;20397;-64
2023/10/26 09:52:35;;;;;;;109.80;54.47;;;8.60;89.20;;;;;;5017683;28;20045;-64
2023/10/26 09:55:04;;;;;;;109.50;51.17;;;8.60;89.10;;;;;;5017366;28;20054;-64
2023/10/26 09:57:38;;;;;;;117.47;56.67;;;8.60;89.20;;;;;;5018344;28;20061;-64
2023/10/26 10:00:11;;;;;;;107.97;52.87;;;8.60;89.30;;;;;;5017657;28;20054;-64
2023/10/26 10:02:37;;;;;;;114.50;53.33;;;8.60;89.20;;;;;;5017880;28;20063;-64
2023/10/26 10:05:04;;;;;;;129.90;55.63;;;8.60;89.20;;;;;;5016631;28;20049;-64
2023/10/26 10:07:45;;;;;;;111.73;53.00;;;8.60;89.20;;;;;;5017845;28;20151;-63
2023/10/26 10:10:13;;;;;;;95.45;51.25;;;8.60;89.20;;;;;;5016825;28;20049;-64
2023/10/26 10:12:42;;;;;;;98.77;52.53;;;8.60;89.30;;;;;;5016929;28;20064;-64
2023/10/26 10:15:11;;;;;;;112.20;54.30;;;8.70;89.30;;;;;;5016255;28;20060;-64
2023/10/26 10:17:46;;;;;;;91.33;51.60;;;8.80;89.30;;;;;;5017177;28;20326;-64
2023/10/26 10:20:14;;;;;;;89.10;51.10;;;8.80;89.40;;;;;;5017558;28;20045;-64
2023/10/26 10:22:40;;;;;;;94.33;51.67;;;8.80;89.30;;;;;;5017688;28;20088;-64
2023/10/26 10:25:10;;;;;;;87.03;49.23;;;8.80;89.20;;;;;;5016926;28;20068;-64
2023/10/26 10:27:40;;;;;;;86.57;50.63;;;8.80;89.30;;;;;;5017808;28;20084;-64
2023/10/26 10:30:09;;;;;;;92.10;51.53;;;8.80;89.20;;;;;;5017073;28;20053;-64
2023/10/26 10:32:44;;;;;;;87.47;48.87;;;8.80;89.20;;;;;;5015130;28;20061;-64
2023/10/26 10:35:11;;;;;;;93.20;49.87;;;8.90;89.20;;;;;;5016432;28;20049;-64
2023/10/26 10:37:37;;;;;;;87.00;49.73;;;8.90;89.20;;;;;;5015454;28;20049;-64
2023/10/26 10:40:16;;;;;;;91.83;52.10;;;9.00;89.20;;;;;;5016759;28;20552;-64
2023/10/26 10:42:48;;;;;;;89.87;50.57;;;9.00;89.20;;;;;;5017443;28;20176;-64
2023/10/26 10:45:14;;;;;;;;;;;9.00;89.20;;;;;;5016346;28;20050;-65
2023/10/26 10:47:45;;;;;;;87.40;49.60;;;9.00;89.20;;;;;;5016723;28;19929;-64
2023/10/26 10:50:25;;;;;;;90.30;50.55;;;9.00;89.40;;;;;;5016332;28;20523;-64
2023/10/26 10:52:56;;;;;;;86.37;47.93;;;9.10;89.30;;;;;;5017611;28;20053;-64
2023/10/26 10:55:25;;;;;;;79.27;46.93;;;9.10;89.20;;;;;;5016842;28;20046;-64
2023/10/26 10:57:51;;;;;;;75.60;45.70;;;9.10;89.20;;;;;;5016884;28;20060;-64
2023/10/26 11:00:17;;;;;;;81.87;47.37;;;9.00;89.00;;;;;;5015170;28;21419;-65
2023/10/26 11:02:49;;;;;;;84.50;47.70;;;9.10;89.10;;;;;;5016215;28;20547;-65
2023/10/26 11:05:16;;;;;;;77.33;47.80;;;9.20;89.10;;;;;;5016105;28;20574;-64
2023/10/26 11:07:42;;;;;;;84.67;47.10;;;9.10;89.00;;;;;;5016208;28;20050;-64
2023/10/26 11:10:08;;;;;;;81.43;48.17;;;9.10;89.00;;;;;;5016566;28;20055;-64
2023/10/26 11:12:34;;;;;;;85.80;48.33;;;9.10;88.90;;;;;;5016393;28;20093;-65
2023/10/26 11:15:01;;;;;;;88.13;50.27;;;9.10;89.00;;;;;;5014983;28;20140;-64
2023/10/26 11:17:30;;;;;;;92.83;50.07;;;9.10;89.00;;;;;;5015484;28;20068;-65
2023/10/26 11:19:56;;;;;;;88.37;50.53;;;9.10;89.00;;;;;;5014900;28;20088;-64
2023/10/26 11:22:23;;;;;;;78.63;48.17;;;9.20;89.00;;;;;;5014115;28;20132;-65
2023/10/26 11:24:49;;;;;;;86.80;50.87;;;9.20;89.00;;;;;;5013973;28;20054;-65
2023/10/26 11:27:20;;;;;;;75.37;47.53;;;9.20;89.10;;;;;;5016705;28;20049;-64
2023/10/26 11:30:01;;;;;;;;;;;9.20;88.90;;;;;;5015913;28;20085;-65
2023/10/26 11:32:29;;;;;;;78.97;47.93;;;9.20;88.90;;;;;;5015841;28;20049;-65
2023/10/26 11:35:05;;;;;;;78.90;48.20;;;9.20;89.00;;;;;;5014183;28;20068;-65
2023/10/26 11:37:32;;;;;;;85.27;51.37;;;9.20;89.00;;;;;;5015509;28;20049;-64
2023/10/26 11:39:58;;;;;;;83.50;49.57;;;9.20;89.10;;;;;;5014048;28;20081;-65
2023/10/26 11:42:43;;;;;;;74.43;46.23;;;9.30;89.00;;;;;;5014794;28;20061;-64
2023/10/26 11:45:09;;;;;;;73.07;46.90;;;9.30;89.00;;;;;;5015025;28;20103;-65
2023/10/26 11:47:50;;;;;;;72.27;44.90;;;9.30;89.00;;;;;;5016244;28;20534;-64
2023/10/26 11:50:30;;;;;;;52.45;35.08;;;9.30;89.00;;;;;;5015923;28;20069;-65
2023/10/26 11:53:00;;;;;;;74.53;45.97;;;9.30;88.80;;;;;;5015917;28;20060;-65
2023/10/26 11:55:27;;;;;;;67.00;44.60;;;9.30;88.70;;;;;;5014725;28;20069;-64
2023/10/26 11:57:57;;;;;;;72.70;44.93;;;9.40;88.80;;;;;;5016289;28;20041;-64
2023/10/26 12:00:24;;;;;;;78.23;49.23;;;9.40;88.90;;;;;;5015958;28;20045;-64
2023/10/26 12:02:50;;;;;;;81.77;47.67;;;9.40;88.90;;;;;;5015878;28;20096;-64
2023/10/26 12:05:18;;;;;;;79.13;48.70;;;9.40;89.00;;;;;;5014722;28;20484;-65
2023/10/26 12:07:44;;;;;;;74.73;45.80;;;9.50;88.90;;;;;;5015843;28;20057;-64
2023/10/26 12:10:11;;;;;;;70.23;44.73;;;9.50;88.80;;;;;;5016229;28;20056;-65
2023/10/26 12:12:37;;;;;;;71.80;46.60;;;9.50;88.90;;;;;;5016046;28;20575;-65
2023/10/26 12:15:07;;;;;;;73.57;47.33;;;9.60;88.90;;;;;;5014921;28;20080;-64
2023/10/26 12:17:33;;;;;;;72.57;46.47;;;9.60;88.90;;;;;;5015699;28;20057;-65
2023/10/26 12:19:59;;;;;;;77.00;47.53;;;9.60;89.00;;;;;;5015020;28;20072;-65
2023/10/26 12:22:24;;;;;;;70.70;46.80;;;9.60;89.00;;;;;;5014969;28;20049;-64
2023/10/26 12:24:50;;;;;;;72.80;47.90;;;9.60;88.90;;;;;;5015531;28;20061;-65
2023/10/26 12:27:16;;;;;;;90.03;48.70;;;9.60;88.90;;;;;;5015339;28;20159;-65
2023/10/26 12:29:46;;;;;;;77.47;48.90;;;9.70;89.00;;;;;;5015084;28;20042;-65